Harrietta, Michigan
Current Conditions -  °F | °C
As of 7:14 AM on Thursday 29 Jan 2015 (Local Time) from KCAD Reporting Station
Light Snow Light Snow  
Wind Chill: 17°   Ceiling: 2400
Heat Index: 23°   Visibility: 7mi
Dew Point: 20°   Wind: 5mph
Humidity: 90%   Direction: 130°SE
Pressure: 29.73"   Gusts: NA
Location:  44.31°N, 85.7°W
Report Text: KCAD 291214Z AUTO 13004KT 7SM -SN OVC024 M05/M06 A2973 RMK AO2 T10511065
Loading
Personal Weather Stations






























Interactive Weather Map New forecast layout! Learn more

10-Day Weather Forecast

Advertisements
Track Severe Weather on mobile